Attercliffe, United Kingdom
Current Conditions -  °F | °C
As of 9:50 AM on Saturday 29 Nov 2014 (Local Time) from EGCN Reporting Station
Haze Haze  
Wind Chill: 50°   Ceiling: 1400
Heat Index: 50°   Visibility: 2.8mi
Dew Point: 48°   Wind: 5mph
Humidity: 94%   Direction: 90°E
Pressure: 29.88"   Gusts: NA
Location:  53.4°N, 1.46°W
Report Text: EGCN 290950Z 09004KT 040V130 4500 BR FEW010 BKN014 10/09 Q1012
Loading
Personal Weather Stations






























Interactive Weather Map New forecast layout! Learn more

10-Day Weather Forecast

Advertisements
Track Severe Weather on mobile